Time;durP1;ratioP1;P1;durP2;ratioP2;P2;SDS_P1;SDS_P2;PMS_P1;PMS_P2;Temp;Humidity;BMP_temperature;BMP_pressure;BME280_temperature;BME280_humidity;BME280_pressure;Samples;Min_cycle;Max_cycle;Signal;HPM_P1;HPM_P2
2022/01/03 00:00:49;;;;;;;1.20;0.90;;;;;;;9.78;100.00;99671.58;5129667;57;1137469;-71
2022/01/03 00:05:55;;;;;;;1.53;0.80;;;;;;;9.79;100.00;99679.86;5129505;57;1137168;-71
2022/01/03 00:11:02;;;;;;;2.37;1.67;;;;;;;9.76;100.00;99679.67;5085307;57;1137206;-72
2022/01/03 00:16:08;;;;;;;3.70;0.90;;;;;;;9.79;98.43;99682.50;5046661;58;1136926;-71
2022/01/03 00:21:17;;;;;;;8.93;1.03;;;;;;;9.81;98.33;99683.20;5046818;58;1135149;-73
2022/01/03 00:26:28;;;;;;;4.03;1.40;;;;;;;9.80;97.87;99681.05;5046570;58;1134906;-72
2022/01/03 00:31:40;;;;;;;3.57;1.00;;;;;;;9.70;98.41;99678.03;5046538;58;1135248;-71
2022/01/03 00:36:48;;;;;;;3.83;1.40;;;;;;;9.62;99.71;99685.80;5047100;58;1134770;-71
2022/01/03 00:41:54;;;;;;;1.83;1.07;;;;;;;9.48;99.84;99678.56;5046572;58;1134809;-71
2022/01/03 00:47:00;;;;;;;2.00;1.17;;;;;;;9.40;100.00;99682.36;5046653;58;1134885;-73
2022/01/03 00:52:06;;;;;;;2.60;1.40;;;;;;;9.34;100.00;99689.48;5050149;58;1136981;-71
2022/01/03 00:57:31;;;;;;;5.10;1.10;;;;;;;9.31;100.00;99686.29;5058567;58;1136925;-71
2022/01/03 01:02:39;;;;;;;8.40;1.77;;;;;;;9.25;100.00;99694.72;5055421;58;1136932;-71
2022/01/03 01:07:47;;;;;;;5.03;1.73;;;;;;;9.20;100.00;99692.94;5057497;58;1137460;-69
2022/01/03 01:12:55;;;;;;;2.53;0.90;;;;;;;9.16;100.00;99692.39;5058738;58;1137079;-70
2022/01/03 01:18:04;;;;;;;3.60;1.20;;;;;;;9.13;100.00;99688.69;5059087;58;1137061;-73
2022/01/03 01:23:12;;;;;;;1.13;0.93;;;;;;;9.08;100.00;99689.06;5059001;58;1134903;-70
2022/01/03 01:28:18;;;;;;;1.93;0.83;;;;;;;9.07;100.00;99686.55;5059072;58;1134914;-72
2022/01/03 01:33:27;;;;;;;7.30;1.10;;;;;;;9.05;100.00;99674.81;5058825;58;1134825;-73
2022/01/03 01:38:36;;;;;;;4.50;1.13;;;;;;;8.98;100.00;99668.88;5058822;58;1135066;-71
2022/01/03 01:43:48;;;;;;;3.70;1.00;;;;;;;8.93;100.00;99665.30;5058970;58;1135145;-73
2022/01/03 01:48:56;;;;;;;2.13;0.80;;;;;;;8.90;100.00;99665.56;5058911;58;1135025;-69
2022/01/03 01:54:06;;;;;;;2.17;1.07;;;;;;;8.84;100.00;99659.50;5052134;58;1134991;-71
2022/01/03 01:59:33;;;;;;;3.70;1.00;;;;;;;8.78;100.00;99653.41;5047362;58;1135076;-72
2022/01/03 02:04:50;;;;;;;2.83;1.47;;;;;;;8.75;100.00;99648.39;5042975;58;1134959;-73
2022/01/03 02:10:10;;;;;;;5.63;1.70;;;;;;;8.71;100.00;99651.76;5053766;58;1132998;-73
2022/01/03 02:15:19;;;;;;;6.10;1.53;;;;;;;8.66;100.00;99638.62;5068709;57;1136880;-70
2022/01/03 02:20:28;;;;;;;7.13;2.17;;;;;;;8.59;100.00;99635.66;5068351;57;1136981;-70
2022/01/03 02:25:36;;;;;;;6.37;1.83;;;;;;;8.55;100.00;99631.62;5068317;57;1136874;-72
2022/01/03 02:30:42;;;;;;;4.97;1.87;;;;;;;8.54;100.00;99627.31;5095640;57;1136848;-71
2022/01/03 02:35:48;;;;;;;2.60;2.00;;;;;;;8.52;100.00;99618.70;5046422;58;1136858;-70
2022/01/03 02:40:55;;;;;;;4.97;2.60;;;;;;;8.50;100.00;99615.83;5047039;58;1137016;-71
2022/01/03 02:46:02;;;;;;;8.97;2.70;;;;;;;8.43;100.00;99615.01;5047026;58;1137209;-71
2022/01/03 02:51:08;;;;;;;4.63;2.27;;;;;;;8.41;100.00;99608.19;5047010;58;1137437;-71
2022/01/03 02:56:14;;;;;;;5.57;1.77;;;;;;;8.38;100.00;99597.94;5039037;58;1137512;-70
2022/01/03 03:01:21;;;;;;;4.80;2.53;;;;;;;8.37;100.00;99594.46;5036449;58;1137497;-71
2022/01/03 03:06:29;;;;;;;4.27;2.47;;;;;;;8.37;100.00;99583.09;5036260;58;1137396;-72
2022/01/03 03:11:36;;;;;;;6.00;2.77;;;;;;;8.35;100.00;99585.84;5010557;58;1137369;-66
2022/01/03 03:16:44;;;;;;;4.00;2.53;;;;;;;8.36;100.00;99572.19;5036499;58;1136975;-68
2022/01/03 03:21:50;;;;;;;7.33;2.80;;;;;;;8.36;100.00;99569.08;5046888;58;1136889;-69
2022/01/03 03:26:57;;;;;;;7.13;2.70;;;;;;;8.33;100.00;99568.48;5046726;58;1137077;-67
2022/01/03 03:32:03;;;;;;;9.68;2.77;;;;;;;8.34;100.00;99564.41;5046801;58;1137044;-69
2022/01/03 03:37:10;;;;;;;8.80;3.37;;;;;;;8.31;100.00;99559.36;5046618;58;1136957;-68
2022/01/03 03:42:17;;;;;;;6.13;2.70;;;;;;;8.32;100.00;99559.75;5046798;58;1136962;-70
2022/01/03 03:47:23;;;;;;;4.57;2.73;;;;;;;8.31;100.00;99558.52;5046670;58;1136895;-68
2022/01/03 03:52:29;;;;;;;7.30;2.80;;;;;;;8.28;100.00;99546.92;5063678;57;1136935;-67
2022/01/03 03:57:36;;;;;;;4.23;2.23;;;;;;;8.27;100.00;99550.03;5057184;57;1136966;-69
2022/01/03 04:02:42;;;;;;;8.03;2.40;;;;;;;8.26;100.00;99539.62;5058557;57;1136944;-70
2022/01/03 04:07:50;;;;;;;11.33;4.80;;;;;;;8.27;100.00;99543.93;5058653;57;1136967;-67
2022/01/03 04:12:57;;;;;;;6.43;2.37;;;;;;;8.28;100.00;99542.97;5135040;57;1139127;-67
2022/01/03 04:18:02;;;;;;;5.00;3.37;;;;;;;8.29;100.00;99538.89;5076244;57;1137042;-68
2022/01/03 04:23:09;;;;;;;3.87;2.30;;;;;;;8.34;100.00;99538.55;5078224;57;1137176;-68
2022/01/03 04:28:15;;;;;;;12.97;4.40;;;;;;;8.38;100.00;99537.34;5020252;57;1137075;-69
2022/01/03 04:33:22;;;;;;;4.50;2.60;;;;;;;8.40;100.00;99528.83;5058384;57;1139514;-66
2022/01/03 04:38:28;;;;;;;4.80;2.70;;;;;;;8.35;100.00;99520.46;5058460;57;1137316;-66
2022/01/03 04:43:34;;;;;;;6.90;2.80;;;;;;;8.35;100.00;99522.61;5058542;57;1137485;-70
2022/01/03 04:48:42;;;;;;;3.63;2.50;;;;;;;8.33;100.00;99510.53;5058358;57;1137148;-69
2022/01/03 04:53:49;;;;;;;4.58;2.90;;;;;;;8.31;100.00;99504.04;5058364;56;1137250;-71
2022/01/03 04:58:57;;;;;;;4.40;2.90;;;;;;;8.31;100.00;99499.25;5058520;57;1134752;-69
2022/01/03 05:04:04;;;;;;;6.70;2.93;;;;;;;8.30;100.00;99496.27;5058522;56;1134976;-68
2022/01/03 05:09:09;;;;;;;4.67;2.47;;;;;;;8.29;100.00;99500.70;5071884;57;1134848;-66
2022/01/03 05:14:15;;;;;;;2.67;2.10;;;;;;;8.30;100.00;99499.73;5141697;57;1134829;-68
2022/01/03 05:19:22;;;;;;;6.03;2.97;;;;;;;8.31;100.00;99503.20;5112758;57;1134831;-68
2022/01/03 05:24:28;;;;;;;4.10;3.03;;;;;;;8.27;100.00;99498.67;4982068;58;1135087;-69
2022/01/03 05:29:34;;;;;;;2.50;2.30;;;;;;;8.20;100.00;99489.63;5076236;57;1135012;-70
2022/01/03 05:34:41;;;;;;;8.07;2.60;;;;;;;8.06;100.00;99482.89;5100557;57;1135128;-70
2022/01/03 05:39:47;;;;;;;6.03;2.83;;;;;;;8.00;100.00;99478.13;5058453;58;1135066;-69
2022/01/03 05:44:53;;;;;;;13.67;8.27;;;;;;;8.00;100.00;99478.13;5092459;57;1135132;-70
2022/01/03 05:49:59;;;;;;;6.73;4.60;;;;;;;7.98;100.00;99474.78;5092329;57;1137170;-68
2022/01/03 05:55:06;;;;;;;8.10;2.90;;;;;;;7.98;100.00;99462.93;5122420;57;1135107;-68
2022/01/03 06:00:16;;;;;;;4.73;2.97;;;;;;;7.98;100.00;99455.52;5105715;57;1134774;-70
2022/01/03 06:05:32;;;;;;;12.80;6.87;;;;;;;7.97;100.00;99457.79;5120947;57;1134936;-69
2022/01/03 06:10:27;;;;;;;8.13;4.67;;;;;;;7.94;100.00;99444.91;5073752;57;1137167;-68
2022/01/03 06:15:37;;;;;;;20.13;5.40;;;;;;;7.91;100.00;99439.89;5108883;57;1135086;-70
2022/01/03 06:20:46;;;;;;;19.33;7.27;;;;;;;7.91;100.00;99439.89;5100566;57;1134731;-67
2022/01/03 06:25:53;;;;;;;5.42;3.80;;;;;;;7.91;100.00;99435.47;5143168;57;1139086;-67
2022/01/03 06:31:17;;;;;;;8.03;3.65;;;;;;;7.90;100.00;99440.38;5049050;57;1137000;-69
2022/01/03 06:36:23;;;;;;;14.93;6.60;;;;;;;7.91;100.00;99438.58;5129214;57;1136910;-67
2022/01/03 06:41:28;;;;;;;9.93;5.43;;;;;;;7.91;100.00;99438.58;5129298;57;1138923;-70
2022/01/03 06:46:35;;;;;;;39.13;33.00;;;;;;;7.92;100.00;99433.66;5129224;57;1137158;-70
2022/01/03 06:51:41;;;;;;;21.00;17.30;;;;;;;7.86;100.00;99424.95;5129438;57;1141070;-69
2022/01/03 06:56:49;;;;;;;39.67;29.03;;;;;;;7.88;100.00;99432.25;5131432;57;1141060;-69
2022/01/03 07:01:55;;;;;;;36.37;27.33;;;;;;;7.86;100.00;99431.05;5118071;57;1140950;-71
2022/01/03 07:07:02;;;;;;;120.63;103.20;;;;;;;7.87;100.00;99427.46;5089534;57;1140980;-71
2022/01/03 07:12:10;;;;;;;63.60;17.37;;;;;;;7.90;100.00;99425.06;5109000;57;1145267;-71
2022/01/03 07:22:40;;;;;;;19.80;7.70;;;;;;;7.87;100.00;99434.52;5128948;57;1137078;-69
2022/01/03 07:27:47;;;;;;;12.67;4.73;;;;;;;7.81;100.00;99424.02;5141684;57;1139272;-69
2022/01/03 07:32:52;;;;;;;6.53;3.80;;;;;;;7.78;100.00;99420.34;5110127;57;1138854;-67
2022/01/03 07:37:59;;;;;;;3.47;2.63;;;;;;;7.80;100.00;99421.03;5131150;57;1136866;-69
2022/01/03 07:43:04;;;;;;;2.47;1.80;;;;;;;7.80;100.00;99416.24;5058386;58;1137154;-67
2022/01/03 07:48:11;;;;;;;2.13;1.27;;;;;;;7.81;100.00;99430.59;5058036;58;1136922;-68
2022/01/03 07:53:17;;;;;;;1.23;1.10;;;;;;;7.79;100.00;99423.81;5058326;58;1137176;-68
2022/01/03 07:58:23;;;;;;;2.07;1.97;;;;;;;7.79;100.00;99427.77;5053879;58;1137080;-69
2022/01/03 08:03:29;;;;;;;7.70;3.27;;;;;;;7.81;100.00;99427.13;5043849;58;1136988;-67
2022/01/03 08:08:37;;;;;;;7.97;4.20;;;;;;;7.88;100.00;99426.50;5050019;56;1136877;-68
2022/01/03 08:13:42;;;;;;;8.97;6.03;;;;;;;7.96;100.00;99431.11;5213805;56;1136895;-68
2022/01/03 08:18:48;;;;;;;1.30;1.10;;;;;;;7.92;100.00;99434.98;5214863;56;1137009;-69
2022/01/03 08:23:53;;;;;;;3.40;2.80;;;;;;;7.79;100.00;99440.44;5214815;56;1136868;-68
2022/01/03 08:28:59;;;;;;;1.63;1.10;;;;;;;7.69;100.00;99442.15;5098329;56;1136341;-69
2022/01/03 08:34:08;;;;;;;1.00;1.00;;;;;;;7.65;100.00;99450.77;5128909;57;1137147;-67
2022/01/03 08:39:14;;;;;;;3.23;1.50;;;;;;;7.64;100.00;99460.94;5129159;57;1136875;-73
2022/01/03 08:44:20;;;;;;;2.30;1.70;;;;;;;7.60;100.00;99473.18;5125943;57;1136819;-75
2022/01/03 08:49:25;;;;;;;2.83;2.23;;;;;;;7.58;100.00;99493.52;5083672;57;1137127;-70
2022/01/03 08:54:31;;;;;;;4.33;3.00;;;;;;;7.55;100.00;99497.70;5131357;57;1136973;-83
2022/01/03 08:59:38;;;;;;;3.17;2.27;;;;;;;7.55;100.00;99516.96;5124818;57;1136831;-75
2022/01/03 09:04:48;;;;;;;3.77;3.00;;;;;;;7.53;100.00;99522.82;5137986;57;1136896;-83
2022/01/03 09:09:54;;;;;;;3.60;1.60;;;;;;;7.52;100.00;99536.94;5138420;57;1134928;-85
2022/01/03 09:14:59;;;;;;;2.73;1.83;;;;;;;7.49;100.00;99545.55;5142697;57;1134891;-84
2022/01/03 09:20:06;;;;;;;6.27;3.27;;;;;;;7.46;100.00;99558.97;5142442;57;1134707;-83
2022/01/03 09:30:22;;;;;;;1.87;1.70;;;;;;;7.39;100.00;99580.49;5122323;57;1135010;-79
2022/01/03 09:35:28;;;;;;;2.93;1.20;;;;;;;7.37;100.00;99592.09;5142711;57;1134842;-78
2022/01/03 09:40:34;;;;;;;3.23;2.47;;;;;;;7.33;100.00;99607.27;5142992;57;1134854;-82
2022/01/03 09:45:40;;;;;;;5.37;2.70;;;;;;;7.29;100.00;99619.01;5132552;57;1134972;-81
2022/01/03 09:50:46;;;;;;;5.60;3.00;;;;;;;7.24;100.00;99619.00;5115062;57;1135038;-82
2022/01/03 09:55:52;;;;;;;9.70;2.47;;;;;;;7.23;100.00;99634.42;5073513;57;1134805;-85
2022/01/03 10:00:58;;;;;;;1.47;0.68;;;;;;;7.19;100.00;99642.18;5052711;57;1134788;-80
2022/01/03 10:06:04;;;;;;;2.23;1.37;;;;;;;7.11;100.00;99652.47;5078131;57;1134805;-81
2022/01/03 10:11:10;;;;;;;1.67;1.33;;;;;;;7.09;100.00;99660.95;5067836;57;1134789;-84
2022/01/03 10:16:16;;;;;;;3.30;1.20;;;;;;;7.06;100.00;99669.90;5091072;57;1134879;-82
2022/01/03 10:21:38;;;;;;;0.97;0.90;;;;;;;7.04;100.00;99683.63;5082697;57;1134837;-81
2022/01/03 10:26:56;;;;;;;2.10;0.97;;;;;;;7.03;100.00;99689.37;5047067;58;1136829;-80
2022/01/03 10:32:05;;;;;;;1.22;1.10;;;;;;;7.01;100.00;99690.47;5062439;57;1136960;-78
2022/01/03 10:37:15;;;;;;;0.97;0.70;;;;;;;6.98;100.00;99683.65;5125085;57;1136992;-78
2022/01/03 10:42:23;;;;;;;1.90;0.87;;;;;;;6.98;100.00;99690.70;5105760;57;1137142;-80
2022/01/03 10:47:34;;;;;;;0.83;0.80;;;;;;;6.99;100.00;99694.52;5120541;57;1136920;-77
2022/01/03 10:52:45;;;;;;;6.63;2.40;;;;;;;6.99;100.00;99698.94;5129277;57;1136827;-76
2022/01/03 10:57:58;;;;;;;0.60;0.60;;;;;;;6.99;100.00;99702.41;5119824;57;1136969;-83
2022/01/03 11:03:31;;;;;;;10.55;3.58;;;;;;;7.00;100.00;99698.83;5110516;57;1137173;-82
2022/01/03 11:14:00;;;;;;;1.30;0.70;;;;;;;7.05;100.00;99710.29;5053472;57;1137265;-83
2022/01/03 11:19:06;;;;;;;1.40;0.60;;;;;;;7.05;100.00;99710.29;5092534;57;1136933;-78
2022/01/03 11:24:14;;;;;;;2.50;0.90;;;;;;;7.03;100.00;99709.09;5093326;57;1136909;-81
2022/01/03 11:29:20;;;;;;;3.70;1.47;;;;;;;7.03;100.00;99716.98;5093183;57;1137124;-78
2022/01/03 11:34:26;;;;;;;6.03;1.47;;;;;;;7.08;100.00;99719.74;5110411;57;1136837;-81
2022/01/03 11:39:34;;;;;;;3.17;1.67;;;;;;;7.10;100.00;99717.36;5121965;57;1136886;-77
2022/01/03 11:44:43;;;;;;;2.93;1.27;;;;;;;7.16;100.00;99720.02;5123791;57;1136922;-81
2022/01/03 11:49:50;;;;;;;1.33;1.10;;;;;;;7.15;100.00;99719.65;5141235;57;1136891;-79
2022/01/03 11:54:57;;;;;;;2.13;1.03;;;;;;;7.16;100.00;99715.59;5141477;57;1137062;-81
2022/01/03 12:05:43;;;;;;;7.37;1.20;;;;;;;7.23;100.00;99711.52;5141609;57;1134900;-85
2022/01/03 12:10:49;;;;;;;1.20;1.10;;;;;;;7.28;100.00;99704.13;5141585;57;1134899;-81
2022/01/03 12:16:05;;;;;;;5.37;1.93;;;;;;;7.36;100.00;99704.36;5141692;57;1134838;-83
2022/01/03 12:21:13;;;;;;;5.70;1.10;;;;;;;7.44;100.00;99708.20;5141572;57;1134796;-81
2022/01/03 12:26:23;;;;;;;6.00;1.10;;;;;;;7.51;100.00;99697.06;5141546;57;1135057;-83
2022/01/03 12:31:26;;;;;;;2.00;1.20;;;;;;;7.53;100.00;99703.53;5119127;57;1135032;-79
2022/01/03 12:36:32;;;;;;;8.20;2.03;;;;;;;7.57;100.00;99695.77;5058349;57;1134778;-80
2022/01/03 12:41:52;;;;;;;4.00;1.83;;;;;;;7.58;100.00;99699.59;5074987;57;1134800;-80
2022/01/03 12:47:21;;;;;;;7.07;2.13;;;;;;;7.59;100.00;99700.44;5079827;57;1134835;-79
2022/01/03 12:52:30;;;;;;;3.67;1.97;;;;;;;7.60;100.00;99704.73;5130578;57;1136910;-82
2022/01/03 12:57:36;;;;;;;7.90;2.63;;;;;;;7.60;100.00;99706.89;5097260;57;1136955;-79
2022/01/03 13:02:42;;;;;;;8.87;1.70;;;;;;;7.64;100.00;99711.41;5061439;57;1136905;-77
2022/01/03 13:07:49;;;;;;;6.80;1.80;;;;;;;7.66;100.00;99714.29;5047921;58;1136839;-78
2022/01/03 13:12:54;;;;;;;8.43;2.30;;;;;;;7.67;100.00;99708.55;5124224;57;1136848;-80
2022/01/03 13:18:14;;;;;;;10.23;3.00;;;;;;;7.70;100.00;99718.84;5131598;57;1137240;-79
2022/01/03 13:23:20;;;;;;;12.13;3.90;;;;;;;7.71;100.00;99722.67;5121428;57;1139113;-81
2022/01/03 13:28:26;;;;;;;11.37;2.53;;;;;;;7.71;100.00;99729.73;5131466;57;1138958;-79
2022/01/03 13:33:32;;;;;;;12.53;2.47;;;;;;;7.74;100.00;99725.55;5131651;57;1139028;-85
2022/01/03 13:38:39;;;;;;;12.87;2.53;;;;;;;7.76;100.00;99728.91;5127357;57;1139288;-83
2022/01/03 13:43:57;;;;;;;16.73;5.47;;;;;;;7.75;100.00;99725.43;5130502;57;1139134;-85
2022/01/03 13:49:12;;;;;;;16.93;5.77;;;;;;;7.75;100.00;99717.53;5130494;57;1139174;-80
2022/01/03 13:54:31;;;;;;;15.27;5.40;;;;;;;7.75;100.00;99708.80;5131625;57;1139323;-84
2022/01/03 13:59:41;;;;;;;19.70;3.83;;;;;;;7.74;100.00;99713.23;5118969;57;1138818;-84
2022/01/03 14:04:47;;;;;;;9.13;2.33;;;;;;;7.73;100.00;99718.61;5136746;57;1139010;-81
2022/01/03 14:10:01;;;;;;;21.73;7.20;;;;;;;7.68;100.00;99715.02;5102279;57;1136959;-78
2022/01/03 14:15:07;;;;;;;10.87;4.10;;;;;;;7.75;100.00;99728.55;5049073;58;1138980;-80
2022/01/03 14:20:13;;;;;;;36.20;15.60;;;;;;;7.76;100.00;99732.38;5040909;58;1139067;-82
2022/01/03 14:25:22;;;;;;;132.53;55.57;;;;;;;7.76;100.00;99724.95;5039273;58;1141113;-79
2022/01/03 14:30:39;;;;;;;325.30;124.67;;;;;;;7.77;100.00;99718.73;5038117;58;1143224;-82
2022/01/03 14:35:46;;;;;;;201.63;93.70;;;;;;;7.79;100.00;99727.83;5037639;58;1145209;-82
2022/01/03 14:40:54;;;;;;;51.80;30.77;;;;;;;7.74;100.00;99726.39;5042488;57;1141199;-80
2022/01/03 14:46:09;;;;;;;22.53;11.33;;;;;;;7.76;100.00;99726.27;5119251;57;1139020;-79
2022/01/03 14:51:16;;;;;;;51.10;39.23;;;;;;;7.73;100.00;99729.14;5120895;57;1139020;-82
2022/01/03 14:56:29;;;;;;;42.73;28.40;;;;;;;7.68;100.00;99720.75;5094299;57;1139304;-80
2022/01/03 15:01:35;;;;;;;144.83;57.90;;;;;;;7.62;100.00;99718.14;5077826;57;1139033;-80
2022/01/03 15:06:42;;;;;;;34.57;16.27;;;;;;;7.56;100.00;99710.72;5045477;58;1141113;-82
2022/01/03 15:11:48;;;;;;;22.80;6.67;;;;;;;7.51;100.00;99711.54;5105725;57;1139161;-80
2022/01/03 15:16:54;;;;;;;16.87;6.30;;;;;;;7.50;100.00;99714.28;5131889;57;1136918;-81
2022/01/03 15:22:00;;;;;;;16.50;3.40;;;;;;;7.47;100.00;99720.65;5132245;57;1136886;-81
2022/01/03 15:27:07;;;;;;;10.57;3.53;;;;;;;7.44;100.00;99720.05;5132260;57;1136823;-79
2022/01/03 15:32:15;;;;;;;12.60;3.53;;;;;;;7.41;100.00;99713.22;5125986;57;1136950;-84
2022/01/03 15:37:21;;;;;;;58.70;21.93;;;;;;;7.37;100.00;99709.14;5036132;58;1136927;-83
2022/01/03 15:42:27;;;;;;;36.73;13.30;;;;;;;7.31;100.00;99686.80;5131784;57;1139035;-84
2022/01/03 15:47:35;;;;;;;26.43;7.50;;;;;;;7.33;100.00;99687.49;5085249;57;1139220;-83
2022/01/03 15:52:40;;;;;;;18.43;5.90;;;;;;;7.29;100.00;99687.87;5088211;57;1134842;-81
2022/01/03 15:57:46;;;;;;;20.77;6.67;;;;;;;7.18;100.00;99667.64;5061111;57;1134824;-81
2022/01/03 16:02:52;;;;;;;60.93;26.43;;;;;;;7.15;100.00;99663.95;5131936;57;1139202;-83
2022/01/03 16:08:00;;;;;;;41.18;12.78;;;;;;;7.15;100.00;99663.95;5073899;57;1141137;-79
2022/01/03 16:13:05;;;;;;;113.20;46.03;;;;;;;7.15;100.00;99662.64;5196536;56;1145762;-82
2022/01/03 16:18:13;;;;;;;151.60;68.17;;;;;;;7.18;100.00;99664.20;5204755;56;1143436;-81
2022/01/03 16:23:19;;;;;;;210.77;113.10;;;;;;;7.17;100.00;99667.78;5204970;56;1143475;-81
2022/01/03 16:28:25;;;;;;;93.93;51.93;;;;;;;7.14;100.00;99668.85;5111167;56;1145487;-78
2022/01/03 16:33:31;;;;;;;21.40;7.83;;;;;;;7.13;100.00;99668.97;5096192;57;1141226;-80
2022/01/03 16:38:37;;;;;;;16.20;3.93;;;;;;;7.10;100.00;99679.23;5083658;57;1139140;-84
2022/01/03 16:43:43;;;;;;;12.77;2.37;;;;;;;7.10;100.00;99670.03;5105463;57;1139332;-78
2022/01/03 16:48:49;;;;;;;12.18;5.33;;;;;;;7.05;100.00;99668.22;5080554;57;1138931;-80
2022/01/03 16:53:55;;;;;;;34.23;20.73;;;;;;;7.06;100.00;99660.70;5129771;57;1139224;-78
2022/01/03 16:59:01;;;;;;;95.43;62.30;;;;;;;7.03;100.00;99668.34;5129705;57;1141247;-79
2022/01/03 17:04:06;;;;;;;34.23;21.40;;;;;;;7.03;100.00;99667.50;5129608;57;1141506;-79
2022/01/03 17:09:12;;;;;;;44.37;25.00;;;;;;;7.04;100.00;99673.13;5125784;57;1141319;-83
2022/01/03 17:14:20;;;;;;;38.13;24.33;;;;;;;7.05;100.00;99662.48;5086777;57;1141332;-77
2022/01/03 17:19:25;;;;;;;170.30;64.13;;;;;;;7.05;100.00;99672.16;5072783;57;1141171;-71
2022/01/03 17:24:32;;;;;;;583.03;247.53;;;;;;;7.02;100.00;99666.69;5060041;57;1142513;-82
2022/01/03 17:29:39;;;;;;;78.57;28.57;;;;;;;7.00;100.00;99665.13;5103474;57;1145047;-76
2022/01/03 17:34:45;;;;;;;87.67;31.80;;;;;;;7.00;100.00;99658.08;5081021;57;1141031;-78
2022/01/03 17:39:52;;;;;;;60.53;21.13;;;;;;;7.03;100.00;99668.81;5060099;58;1141200;-75
2022/01/03 17:44:57;;;;;;;30.57;11.23;;;;;;;7.05;100.00;99657.70;5130194;57;1141135;-74
2022/01/03 17:50:05;;;;;;;27.50;12.67;;;;;;;7.09;100.00;99659.16;5131801;57;1141109;-74
2022/01/03 17:55:11;;;;;;;9.77;3.47;;;;;;;7.11;100.00;99657.25;5132284;57;1141371;-70
2022/01/03 18:00:18;;;;;;;15.03;3.30;;;;;;;7.09;100.00;99657.84;5130345;57;1137309;-75
2022/01/03 18:05:24;;;;;;;10.27;3.63;;;;;;;7.08;100.00;99660.58;5127063;57;1138990;-81
2022/01/03 18:10:29;;;;;;;10.53;3.30;;;;;;;7.06;100.00;99664.17;5121489;57;1138952;-73
2022/01/03 18:15:35;;;;;;;15.30;3.20;;;;;;;7.07;100.00;99667.63;5107343;57;1138923;-79
2022/01/03 18:20:41;;;;;;;10.60;3.27;;;;;;;7.07;100.00;99670.27;5105720;57;1138305;-70
2022/01/03 18:25:47;;;;;;;84.07;20.03;;;;;;;7.09;100.00;99664.41;5139911;57;1139009;-75
2022/01/03 18:30:53;;;;;;;28.73;8.00;;;;;;;7.09;100.00;99668.83;5096262;57;1141144;-73
2022/01/03 18:35:58;;;;;;;67.27;20.40;;;;;;;7.08;100.00;99661.90;5125757;57;1139027;-74
2022/01/03 18:41:05;;;;;;;89.10;19.80;;;;;;;7.05;100.00;99653.28;5141972;57;1141154;-71
2022/01/03 18:46:12;;;;;;;84.43;17.97;;;;;;;7.04;100.00;99650.30;5070490;57;1141096;-77
2022/01/03 18:51:19;;;;;;;49.30;12.17;;;;;;;7.05;100.00;99648.03;5104698;57;1141087;-71
2022/01/03 18:56:25;;;;;;;58.73;14.27;;;;;;;7.06;100.00;99642.30;5101901;57;1141221;-76
2022/01/03 19:01:32;;;;;;;28.57;8.90;;;;;;;7.06;100.00;99636.56;5101544;57;1141488;-70
2022/01/03 19:06:38;;;;;;;27.95;8.00;;;;;;;7.08;100.00;99623.30;5101764;57;1139117;-75
2022/01/03 19:11:43;;;;;;;24.53;7.53;;;;;;;7.08;100.00;99624.61;5086056;57;1139559;-74
2022/01/03 19:16:51;;;;;;;19.33;5.87;;;;;;;7.07;100.00;99617.68;5129918;57;1137155;-73
2022/01/03 19:21:58;;;;;;;27.60;8.57;;;;;;;7.03;100.00;99617.07;5110102;57;1137405;-74
2022/01/03 19:27:04;;;;;;;21.73;6.53;;;;;;;7.00;100.00;99617.81;5101915;57;1137104;-72
2022/01/03 19:32:13;;;;;;;44.70;13.67;;;;;;;6.93;100.00;99614.80;5072763;57;1137110;-81
2022/01/03 19:42:41;;;;;;;25.25;15.85;;;;;;;6.82;100.00;99608.23;5086413;57;1139309;-73
2022/01/03 19:47:47;;;;;;;29.43;8.10;;;;;;;6.78;100.00;99604.63;5113845;57;1139362;-73
2022/01/03 19:52:54;;;;;;;24.97;7.07;;;;;;;6.68;100.00;99597.46;5075529;57;1137186;-72
2022/01/03 19:57:59;;;;;;;24.57;8.13;;;;;;;6.67;100.00;99601.52;5090602;57;1136924;-77
2022/01/03 20:03:07;;;;;;;35.83;10.03;;;;;;;6.66;100.00;99599.36;5090245;57;1136900;-80
2022/01/03 20:08:13;;;;;;;23.10;7.37;;;;;;;6.63;100.00;99595.65;5091860;57;1138980;-71
2022/01/03 20:13:21;;;;;;;30.77;9.17;;;;;;;6.65;100.00;99604.73;5203522;56;1136812;-78
2022/01/03 20:18:27;;;;;;;27.57;8.50;;;;;;;6.64;100.00;99602.58;5104539;57;1137056;-77
2022/01/03 20:23:33;;;;;;;31.47;9.57;;;;;;;6.64;100.00;99600.42;5081171;57;1135117;-76
2022/01/03 20:28:39;;;;;;;36.68;10.18;;;;;;;6.61;100.00;99596.71;5122170;57;1135395;-74
2022/01/03 20:33:46;;;;;;;25.20;7.85;;;;;;;6.58;100.00;99591.20;5108933;57;1141015;-78
2022/01/03 20:38:51;;;;;;;36.05;8.53;;;;;;;6.55;100.00;99588.84;5023735;57;1139247;-85
2022/01/03 20:43:57;;;;;;;36.07;8.47;;;;;;;6.50;100.00;99576.52;5121237;57;1139044;-81
2022/01/03 20:49:02;;;;;;;19.92;8.15;;;;;;;6.56;100.00;99572.60;5120471;57;1138967;-81
2022/01/03 20:54:09;;;;;;;23.02;5.67;;;;;;;6.56;100.00;99568.66;5111840;57;1139153;-80
2022/01/03 20:59:14;;;;;;;27.77;8.23;;;;;;;6.56;100.00;99571.29;5120244;57;1139067;-75
2022/01/03 21:04:21;;;;;;;35.37;11.80;;;;;;;6.54;100.00;99577.13;5120750;57;1139051;-82
2022/01/03 21:09:26;;;;;;;28.87;9.07;;;;;;;6.50;100.00;99567.33;5102597;57;1141824;-79
2022/01/03 21:14:32;;;;;;;21.73;7.00;;;;;;;6.50;100.00;99575.68;5037316;58;1139043;-73
2022/01/03 21:19:38;;;;;;;24.33;8.73;;;;;;;6.48;100.00;99571.02;5065622;57;1138956;-73
2022/01/03 21:24:44;;;;;;;20.73;7.63;;;;;;;6.46;100.00;99576.86;5097614;57;1139315;-73
2022/01/03 21:29:50;;;;;;;36.73;16.20;;;;;;;6.41;100.00;99574.60;5077735;57;1139247;-73
2022/01/03 21:34:56;;;;;;;22.07;8.67;;;;;;;6.38;100.00;99573.98;5084889;57;1141041;-73
2022/01/03 21:40:02;;;;;;;17.30;7.40;;;;;;;6.35;100.00;99565.86;5079877;57;1139062;-73
2022/01/03 21:45:08;;;;;;;16.87;6.00;;;;;;;6.32;100.00;99566.08;5072145;57;1138940;-73
2022/01/03 21:50:14;;;;;;;28.60;8.60;;;;;;;6.28;100.00;99560.22;5047239;58;1139057;-73
2022/01/03 21:55:20;;;;;;;17.77;3.93;;;;;;;6.28;100.00;99566.78;5047068;57;1139308;-73
2022/01/03 22:00:26;;;;;;;30.50;7.83;;;;;;;6.23;100.00;99565.00;5047085;57;1138926;-73
2022/01/03 22:05:31;;;;;;;16.37;5.77;;;;;;;6.20;100.00;99555.19;5047187;58;1139039;-73
2022/01/03 22:10:37;;;;;;;16.40;6.23;;;;;;;6.17;100.00;99547.55;5049143;58;1139002;-73
2022/01/03 22:15:43;;;;;;;21.90;6.00;;;;;;;6.13;100.00;99545.61;5058977;58;1139181;-72
2022/01/03 22:20:49;;;;;;;20.27;6.50;;;;;;;6.09;100.00;99548.61;5058894;58;1138830;-73
2022/01/03 22:25:55;;;;;;;15.10;6.03;;;;;;;6.05;100.00;99546.67;5058965;58;1139033;-73
2022/01/03 22:31:00;;;;;;;21.47;6.40;;;;;;;6.04;100.00;99537.59;5058809;58;1139000;-72
2022/01/03 22:36:06;;;;;;;31.93;13.63;;;;;;;6.01;100.00;99536.03;5050136;58;1139051;-72
2022/01/03 22:41:12;;;;;;;16.70;4.90;;;;;;;5.99;100.00;99529.59;5047203;58;1141250;-72
2022/01/03 22:46:18;;;;;;;14.43;3.30;;;;;;;5.97;100.00;99528.02;5046832;58;1139259;-73
2022/01/03 22:51:23;;;;;;;11.33;3.40;;;;;;;5.94;100.00;99513.37;5046808;58;1139303;-73
2022/01/03 22:56:30;;;;;;;13.90;5.10;;;;;;;5.92;100.00;99515.27;5047621;58;1139189;-73
2022/01/03 23:01:36;;;;;;;16.03;4.60;;;;;;;5.90;100.00;99506.66;5047772;58;1139543;-72
2022/01/03 23:06:42;;;;;;;22.20;6.40;;;;;;;5.89;100.00;99498.91;5047841;58;1139000;-73
2022/01/03 23:11:48;;;;;;;14.37;5.47;;;;;;;5.88;100.00;99500.69;5160924;56;1139068;-72
2022/01/03 23:16:54;;;;;;;21.57;6.90;;;;;;;5.88;100.00;99488.88;5205148;56;1139154;-73
2022/01/03 23:22:00;;;;;;;10.43;4.90;;;;;;;5.87;100.00;99494.20;5215341;56;1138963;-73
2022/01/03 23:27:07;;;;;;;14.57;4.07;;;;;;;5.83;100.00;99480.95;5215509;56;1139465;-73
2022/01/03 23:32:12;;;;;;;18.00;4.60;;;;;;;5.78;100.00;99476.54;5174721;56;1138998;-73
2022/01/03 23:37:19;;;;;;;16.33;5.17;;;;;;;5.74;100.00;99475.09;5124062;57;1139325;-73
2022/01/03 23:42:24;;;;;;;14.13;4.47;;;;;;;5.73;100.00;99476.03;5129827;57;1138873;-72
2022/01/03 23:47:31;;;;;;;18.27;6.27;;;;;;;5.68;100.00;99471.59;5129676;57;1139198;-73